sensor_id;sensor_type;location;lat;lon;timestamp;P1;durP1;ratioP1;P2;durP2;ratioP2
28920;SDS011;16035;53.594;9.952;2022-09-09T00:00:15;27.33;;;17.55;;
28920;SDS011;16035;53.594;9.952;2022-09-09T00:02:20;25.27;;;15.50;;
28920;SDS011;16035;53.594;9.952;2022-09-09T00:04:33;31.35;;;18.83;;
28920;SDS011;16035;53.594;9.952;2022-09-09T00:06:43;29.17;;;17.13;;
28920;SDS011;16035;53.594;9.952;2022-09-09T00:11:16;30.25;;;19.65;;
28920;SDS011;16035;53.594;9.952;2022-09-09T00:13:44;34.77;;;20.43;;
28920;SDS011;16035;53.594;9.952;2022-09-09T00:18:05;32.58;;;19.58;;
28920;SDS011;16035;53.594;9.952;2022-09-09T00:20:16;33.72;;;19.55;;
28920;SDS011;16035;53.594;9.952;2022-09-09T00:22:28;24.75;;;17.25;;
28920;SDS011;16035;53.594;9.952;2022-09-09T00:29:09;27.98;;;16.55;;
28920;SDS011;16035;53.594;9.952;2022-09-09T00:31:16;26.80;;;17.00;;
28920;SDS011;16035;53.594;9.952;2022-09-09T00:33:22;27.23;;;16.67;;
28920;SDS011;16035;53.594;9.952;2022-09-09T00:35:25;31.70;;;19.13;;
28920;SDS011;16035;53.594;9.952;2022-09-09T00:37:29;28.83;;;17.85;;
28920;SDS011;16035;53.594;9.952;2022-09-09T00:39:37;25.75;;;18.02;;
28920;SDS011;16035;53.594;9.952;2022-09-09T00:46:41;25.23;;;16.25;;
28920;SDS011;16035;53.594;9.952;2022-09-09T00:48:57;28.10;;;17.58;;
28920;SDS011;16035;53.594;9.952;2022-09-09T00:51:48;31.30;;;18.40;;
28920;SDS011;16035;53.594;9.952;2022-09-09T00:53:39;24.17;;;17.30;;
28920;SDS011;16035;53.594;9.952;2022-09-09T00:56:16;26.38;;;17.08;;
28920;SDS011;16035;53.594;9.952;2022-09-09T00:58:21;26.35;;;16.90;;
28920;SDS011;16035;53.594;9.952;2022-09-09T01:00:22;27.63;;;16.87;;
28920;SDS011;16035;53.594;9.952;2022-09-09T01:04:34;32.40;;;19.02;;
28920;SDS011;16035;53.594;9.952;2022-09-09T01:06:36;31.88;;;18.98;;
28920;SDS011;16035;53.594;9.952;2022-09-09T01:11:07;33.75;;;19.67;;
28920;SDS011;16035;53.594;9.952;2022-09-09T01:15:30;33.58;;;19.05;;
28920;SDS011;16035;53.594;9.952;2022-09-09T01:17:40;32.95;;;18.85;;
28920;SDS011;16035;53.594;9.952;2022-09-09T01:21:48;29.57;;;17.63;;
28920;SDS011;16035;53.594;9.952;2022-09-09T01:28:24;36.67;;;19.73;;
28920;SDS011;16035;53.594;9.952;2022-09-09T01:30:27;31.30;;;17.88;;
28920;SDS011;16035;53.594;9.952;2022-09-09T01:32:38;34.08;;;19.23;;
28920;SDS011;16035;53.594;9.952;2022-09-09T01:34:41;30.48;;;18.17;;
28920;SDS011;16035;53.594;9.952;2022-09-09T01:36:46;29.67;;;17.40;;
28920;SDS011;16035;53.594;9.952;2022-09-09T01:39:09;32.47;;;17.27;;
28920;SDS011;16035;53.594;9.952;2022-09-09T01:41:11;31.92;;;16.90;;
28920;SDS011;16035;53.594;9.952;2022-09-09T01:43:11;27.07;;;16.80;;
28920;SDS011;16035;53.594;9.952;2022-09-09T01:45:12;28.30;;;17.03;;
28920;SDS011;16035;53.594;9.952;2022-09-09T01:47:12;26.17;;;16.13;;
28920;SDS011;16035;53.594;9.952;2022-09-09T01:49:14;28.10;;;16.60;;
28920;SDS011;16035;53.594;9.952;2022-09-09T01:51:16;27.55;;;17.13;;
28920;SDS011;16035;53.594;9.952;2022-09-09T01:53:17;31.13;;;17.07;;
28920;SDS011;16035;53.594;9.952;2022-09-09T01:55:23;31.98;;;18.15;;
28920;SDS011;16035;53.594;9.952;2022-09-09T01:57:46;29.55;;;17.80;;
28920;SDS011;16035;53.594;9.952;2022-09-09T02:02:18;28.85;;;17.33;;
28920;SDS011;16035;53.594;9.952;2022-09-09T02:04:42;25.60;;;15.77;;
28920;SDS011;16035;53.594;9.952;2022-09-09T02:06:48;28.25;;;16.92;;
28920;SDS011;16035;53.594;9.952;2022-09-09T02:08:55;22.80;;;13.77;;
28920;SDS011;16035;53.594;9.952;2022-09-09T02:11:01;26.70;;;15.90;;
28920;SDS011;16035;53.594;9.952;2022-09-09T02:13:17;25.63;;;14.90;;
28920;SDS011;16035;53.594;9.952;2022-09-09T02:15:30;30.00;;;16.27;;
28920;SDS011;16035;53.594;9.952;2022-09-09T02:17:34;27.15;;;16.02;;
28920;SDS011;16035;53.594;9.952;2022-09-09T02:19:39;24.38;;;13.57;;
28920;SDS011;16035;53.594;9.952;2022-09-09T02:21:48;27.17;;;14.93;;
28920;SDS011;16035;53.594;9.952;2022-09-09T02:23:49;22.50;;;13.93;;
28920;SDS011;16035;53.594;9.952;2022-09-09T02:25:52;22.55;;;14.55;;
28920;SDS011;16035;53.594;9.952;2022-09-09T02:27:55;27.38;;;15.52;;
28920;SDS011;16035;53.594;9.952;2022-09-09T02:29:59;23.92;;;14.70;;
28920;SDS011;16035;53.594;9.952;2022-09-09T02:32:03;25.65;;;15.70;;
28920;SDS011;16035;53.594;9.952;2022-09-09T02:34:08;25.42;;;14.98;;
28920;SDS011;16035;53.594;9.952;2022-09-09T02:36:11;23.60;;;14.20;;
28920;SDS011;16035;53.594;9.952;2022-09-09T02:38:16;22.27;;;14.68;;
28920;SDS011;16035;53.594;9.952;2022-09-09T02:40:17;24.02;;;14.13;;
28920;SDS011;16035;53.594;9.952;2022-09-09T02:42:17;27.03;;;15.57;;
28920;SDS011;16035;53.594;9.952;2022-09-09T02:44:19;25.33;;;16.15;;
28920;SDS011;16035;53.594;9.952;2022-09-09T02:48:36;22.10;;;13.55;;
28920;SDS011;16035;53.594;9.952;2022-09-09T02:50:48;21.70;;;14.07;;
28920;SDS011;16035;53.594;9.952;2022-09-09T02:52:57;25.42;;;14.68;;
28920;SDS011;16035;53.594;9.952;2022-09-09T02:55:14;28.30;;;14.85;;
28920;SDS011;16035;53.594;9.952;2022-09-09T02:57:22;22.92;;;13.88;;
28920;SDS011;16035;53.594;9.952;2022-09-09T02:59:25;21.95;;;14.50;;
28920;SDS011;16035;53.594;9.952;2022-09-09T03:01:26;23.83;;;13.73;;
28920;SDS011;16035;53.594;9.952;2022-09-09T03:03:27;24.33;;;14.60;;
28920;SDS011;16035;53.594;9.952;2022-09-09T03:05:27;21.10;;;12.87;;
28920;SDS011;16035;53.594;9.952;2022-09-09T03:07:28;22.67;;;14.37;;
28920;SDS011;16035;53.594;9.952;2022-09-09T03:09:28;25.27;;;14.03;;
28920;SDS011;16035;53.594;9.952;2022-09-09T03:11:28;21.37;;;13.90;;
28920;SDS011;16035;53.594;9.952;2022-09-09T03:13:29;24.13;;;13.90;;
28920;SDS011;16035;53.594;9.952;2022-09-09T03:15:29;24.57;;;13.97;;
28920;SDS011;16035;53.594;9.952;2022-09-09T03:19:31;21.27;;;13.63;;
28920;SDS011;16035;53.594;9.952;2022-09-09T03:21:31;22.67;;;13.00;;
28920;SDS011;16035;53.594;9.952;2022-09-09T03:23:32;20.73;;;12.97;;
28920;SDS011;16035;53.594;9.952;2022-09-09T03:25:32;21.77;;;13.73;;
28920;SDS011;16035;53.594;9.952;2022-09-09T03:27:33;18.83;;;12.65;;
28920;SDS011;16035;53.594;9.952;2022-09-09T03:29:33;18.83;;;12.37;;
28920;SDS011;16035;53.594;9.952;2022-09-09T03:31:34;19.00;;;12.27;;
28920;SDS011;16035;53.594;9.952;2022-09-09T03:35:37;20.77;;;12.63;;
28920;SDS011;16035;53.594;9.952;2022-09-09T03:37:37;18.20;;;11.27;;
28920;SDS011;16035;53.594;9.952;2022-09-09T03:41:39;15.10;;;10.37;;
28920;SDS011;16035;53.594;9.952;2022-09-09T03:43:39;21.23;;;12.03;;
28920;SDS011;16035;53.594;9.952;2022-09-09T03:45:39;17.03;;;11.63;;
28920;SDS011;16035;53.594;9.952;2022-09-09T03:47:40;20.70;;;11.77;;
28920;SDS011;16035;53.594;9.952;2022-09-09T03:49:40;16.77;;;11.43;;
28920;SDS011;16035;53.594;9.952;2022-09-09T03:51:41;16.23;;;10.53;;
28920;SDS011;16035;53.594;9.952;2022-09-09T03:53:42;19.27;;;12.38;;
28920;SDS011;16035;53.594;9.952;2022-09-09T03:55:43;17.27;;;11.43;;
28920;SDS011;16035;53.594;9.952;2022-09-09T03:57:48;16.00;;;10.77;;
28920;SDS011;16035;53.594;9.952;2022-09-09T03:59:49;21.73;;;11.75;;
28920;SDS011;16035;53.594;9.952;2022-09-09T04:01:49;16.97;;;12.03;;
28920;SDS011;16035;53.594;9.952;2022-09-09T04:03:51;14.80;;;11.13;;
28920;SDS011;16035;53.594;9.952;2022-09-09T04:07:53;18.37;;;11.00;;
28920;SDS011;16035;53.594;9.952;2022-09-09T04:09:54;15.60;;;10.50;;
28920;SDS011;16035;53.594;9.952;2022-09-09T04:11:54;13.07;;;9.80;;
28920;SDS011;16035;53.594;9.952;2022-09-09T04:13:54;14.73;;;10.53;;
28920;SDS011;16035;53.594;9.952;2022-09-09T04:15:56;17.90;;;10.50;;
28920;SDS011;16035;53.594;9.952;2022-09-09T04:17:58;14.15;;;10.35;;
28920;SDS011;16035;53.594;9.952;2022-09-09T04:19:58;18.17;;;10.53;;
28920;SDS011;16035;53.594;9.952;2022-09-09T04:21:59;14.83;;;10.63;;
28920;SDS011;16035;53.594;9.952;2022-09-09T04:23:59;15.97;;;10.93;;
28920;SDS011;16035;53.594;9.952;2022-09-09T04:26:00;14.77;;;9.97;;
28920;SDS011;16035;53.594;9.952;2022-09-09T04:28:01;15.88;;;9.77;;
28920;SDS011;16035;53.594;9.952;2022-09-09T04:30:02;14.05;;;10.65;;
28920;SDS011;16035;53.594;9.952;2022-09-09T04:32:03;17.10;;;10.87;;
28920;SDS011;16035;53.594;9.952;2022-09-09T04:34:04;15.73;;;9.90;;
28920;SDS011;16035;53.594;9.952;2022-09-09T04:36:05;14.83;;;10.60;;
28920;SDS011;16035;53.594;9.952;2022-09-09T04:38:06;12.65;;;9.73;;
28920;SDS011;16035;53.594;9.952;2022-09-09T04:40:09;14.20;;;8.98;;
28920;SDS011;16035;53.594;9.952;2022-09-09T04:42:09;15.27;;;9.83;;
28920;SDS011;16035;53.594;9.952;2022-09-09T04:44:10;14.43;;;10.13;;
28920;SDS011;16035;53.594;9.952;2022-09-09T04:46:10;15.60;;;10.77;;
28920;SDS011;16035;53.594;9.952;2022-09-09T04:48:10;15.73;;;10.67;;
28920;SDS011;16035;53.594;9.952;2022-09-09T04:50:11;15.73;;;11.33;;
28920;SDS011;16035;53.594;9.952;2022-09-09T04:52:12;15.75;;;10.95;;
28920;SDS011;16035;53.594;9.952;2022-09-09T04:54:12;15.83;;;9.70;;
28920;SDS011;16035;53.594;9.952;2022-09-09T04:56:14;15.87;;;10.93;;
28920;SDS011;16035;53.594;9.952;2022-09-09T04:58:15;14.93;;;10.30;;
28920;SDS011;16035;53.594;9.952;2022-09-09T05:00:16;17.40;;;10.90;;
28920;SDS011;16035;53.594;9.952;2022-09-09T05:02:17;13.15;;;10.02;;
28920;SDS011;16035;53.594;9.952;2022-09-09T05:04:17;16.83;;;10.60;;
28920;SDS011;16035;53.594;9.952;2022-09-09T05:06:20;15.40;;;10.18;;
28920;SDS011;16035;53.594;9.952;2022-09-09T05:08:21;14.48;;;9.30;;
28920;SDS011;16035;53.594;9.952;2022-09-09T05:10:25;14.30;;;8.80;;
28920;SDS011;16035;53.594;9.952;2022-09-09T05:12:28;12.13;;;9.15;;
28920;SDS011;16035;53.594;9.952;2022-09-09T05:14:28;14.43;;;9.37;;
28920;SDS011;16035;53.594;9.952;2022-09-09T05:16:30;14.25;;;9.68;;
28920;SDS011;16035;53.594;9.952;2022-09-09T05:18:30;14.27;;;9.38;;
28920;SDS011;16035;53.594;9.952;2022-09-09T05:20:31;12.90;;;8.30;;
28920;SDS011;16035;53.594;9.952;2022-09-09T05:22:31;15.10;;;9.47;;
28920;SDS011;16035;53.594;9.952;2022-09-09T05:24:32;11.83;;;7.83;;
28920;SDS011;16035;53.594;9.952;2022-09-09T05:26:33;10.38;;;8.00;;
28920;SDS011;16035;53.594;9.952;2022-09-09T05:28:34;10.93;;;7.63;;
28920;SDS011;16035;53.594;9.952;2022-09-09T05:30:35;10.52;;;7.88;;
28920;SDS011;16035;53.594;9.952;2022-09-09T05:32:35;10.63;;;8.00;;
28920;SDS011;16035;53.594;9.952;2022-09-09T05:34:36;11.10;;;7.77;;
28920;SDS011;16035;53.594;9.952;2022-09-09T05:36:37;10.07;;;7.47;;
28920;SDS011;16035;53.594;9.952;2022-09-09T05:38:37;10.07;;;7.90;;
28920;SDS011;16035;53.594;9.952;2022-09-09T05:40:39;11.13;;;7.03;;
28920;SDS011;16035;53.594;9.952;2022-09-09T05:42:47;9.23;;;6.67;;
28920;SDS011;16035;53.594;9.952;2022-09-09T05:44:47;10.10;;;7.33;;
28920;SDS011;16035;53.594;9.952;2022-09-09T05:46:47;12.60;;;8.13;;
28920;SDS011;16035;53.594;9.952;2022-09-09T05:48:49;10.13;;;7.50;;
28920;SDS011;16035;53.594;9.952;2022-09-09T05:50:54;8.15;;;6.82;;
28920;SDS011;16035;53.594;9.952;2022-09-09T05:52:54;11.15;;;7.50;;
28920;SDS011;16035;53.594;9.952;2022-09-09T05:54:55;11.03;;;7.23;;
28920;SDS011;16035;53.594;9.952;2022-09-09T05:56:56;6.97;;;5.75;;
28920;SDS011;16035;53.594;9.952;2022-09-09T05:58:58;9.10;;;5.85;;
28920;SDS011;16035;53.594;9.952;2022-09-09T06:01:00;7.93;;;6.30;;
28920;SDS011;16035;53.594;9.952;2022-09-09T06:03:04;10.57;;;6.40;;
28920;SDS011;16035;53.594;9.952;2022-09-09T06:05:04;11.83;;;7.57;;
28920;SDS011;16035;53.594;9.952;2022-09-09T06:07:05;10.10;;;7.63;;
28920;SDS011;16035;53.594;9.952;2022-09-09T06:09:06;13.70;;;7.10;;
28920;SDS011;16035;53.594;9.952;2022-09-09T06:11:10;12.85;;;7.45;;
28920;SDS011;16035;53.594;9.952;2022-09-09T06:13:13;9.98;;;6.75;;
28920;SDS011;16035;53.594;9.952;2022-09-09T06:15:14;8.73;;;6.73;;
28920;SDS011;16035;53.594;9.952;2022-09-09T06:17:14;10.93;;;6.60;;
28920;SDS011;16035;53.594;9.952;2022-09-09T06:19:14;11.10;;;6.53;;
28920;SDS011;16035;53.594;9.952;2022-09-09T06:21:15;10.00;;;6.43;;
28920;SDS011;16035;53.594;9.952;2022-09-09T06:23:17;10.13;;;6.13;;
28920;SDS011;16035;53.594;9.952;2022-09-09T06:25:18;7.45;;;5.22;;
28920;SDS011;16035;53.594;9.952;2022-09-09T06:27:19;8.27;;;6.40;;
28920;SDS011;16035;53.594;9.952;2022-09-09T06:29:19;12.33;;;6.07;;
28920;SDS011;16035;53.594;9.952;2022-09-09T06:31:20;10.87;;;7.13;;
28920;SDS011;16035;53.594;9.952;2022-09-09T06:33:23;6.95;;;5.00;;
28920;SDS011;16035;53.594;9.952;2022-09-09T06:35:23;9.23;;;6.07;;
28920;SDS011;16035;53.594;9.952;2022-09-09T06:37:23;8.30;;;5.50;;
28920;SDS011;16035;53.594;9.952;2022-09-09T06:39:24;8.33;;;6.00;;
28920;SDS011;16035;53.594;9.952;2022-09-09T06:41:25;7.67;;;5.60;;
28920;SDS011;16035;53.594;9.952;2022-09-09T06:43:27;9.23;;;5.50;;
28920;SDS011;16035;53.594;9.952;2022-09-09T06:45:28;8.98;;;5.88;;
28920;SDS011;16035;53.594;9.952;2022-09-09T06:47:28;9.65;;;5.18;;
28920;SDS011;16035;53.594;9.952;2022-09-09T06:49:30;8.73;;;5.60;;
28920;SDS011;16035;53.594;9.952;2022-09-09T06:51:31;7.00;;;5.57;;
28920;SDS011;16035;53.594;9.952;2022-09-09T06:53:34;7.55;;;5.60;;
28920;SDS011;16035;53.594;9.952;2022-09-09T06:55:35;10.32;;;5.60;;
28920;SDS011;16035;53.594;9.952;2022-09-09T06:57:36;10.13;;;5.37;;
28920;SDS011;16035;53.594;9.952;2022-09-09T06:59:36;6.67;;;5.47;;
28920;SDS011;16035;53.594;9.952;2022-09-09T07:01:37;6.83;;;3.67;;
28920;SDS011;16035;53.594;9.952;2022-09-09T07:03:41;7.32;;;5.22;;
28920;SDS011;16035;53.594;9.952;2022-09-09T07:07:43;8.35;;;4.63;;
28920;SDS011;16035;53.594;9.952;2022-09-09T07:09:44;6.33;;;4.80;;
28920;SDS011;16035;53.594;9.952;2022-09-09T07:11:46;7.63;;;4.70;;
28920;SDS011;16035;53.594;9.952;2022-09-09T07:13:48;7.43;;;4.35;;
28920;SDS011;16035;53.594;9.952;2022-09-09T07:15:48;6.13;;;4.80;;
28920;SDS011;16035;53.594;9.952;2022-09-09T07:17:49;8.40;;;5.07;;
28920;SDS011;16035;53.594;9.952;2022-09-09T07:19:49;6.80;;;4.70;;
28920;SDS011;16035;53.594;9.952;2022-09-09T07:21:49;5.40;;;3.43;;
28920;SDS011;16035;53.594;9.952;2022-09-09T07:23:50;8.97;;;4.63;;
28920;SDS011;16035;53.594;9.952;2022-09-09T07:25:51;6.20;;;4.45;;
28920;SDS011;16035;53.594;9.952;2022-09-09T07:27:52;5.93;;;4.57;;
28920;SDS011;16035;53.594;9.952;2022-09-09T07:29:53;6.10;;;4.57;;
28920;SDS011;16035;53.594;9.952;2022-09-09T07:31:54;7.63;;;4.88;;
28920;SDS011;16035;53.594;9.952;2022-09-09T07:33:54;5.10;;;4.13;;
28920;SDS011;16035;53.594;9.952;2022-09-09T07:36:01;5.67;;;4.40;;
28920;SDS011;16035;53.594;9.952;2022-09-09T07:38:03;4.75;;;3.67;;
28920;SDS011;16035;53.594;9.952;2022-09-09T07:40:06;5.53;;;3.30;;
28920;SDS011;16035;53.594;9.952;2022-09-09T07:42:07;4.15;;;3.00;;
28920;SDS011;16035;53.594;9.952;2022-09-09T07:44:09;4.22;;;3.17;;
28920;SDS011;16035;53.594;9.952;2022-09-09T07:46:12;3.15;;;2.85;;
28920;SDS011;16035;53.594;9.952;2022-09-09T07:48:14;4.18;;;2.72;;
28920;SDS011;16035;53.594;9.952;2022-09-09T07:50:14;5.73;;;3.07;;
28920;SDS011;16035;53.594;9.952;2022-09-09T07:52:15;3.60;;;2.55;;
28920;SDS011;16035;53.594;9.952;2022-09-09T07:54:16;4.38;;;3.42;;
28920;SDS011;16035;53.594;9.952;2022-09-09T07:56:24;7.03;;;3.30;;
28920;SDS011;16035;53.594;9.952;2022-09-09T07:58:25;5.68;;;2.83;;
28920;SDS011;16035;53.594;9.952;2022-09-09T08:00:25;4.83;;;3.07;;
28920;SDS011;16035;53.594;9.952;2022-09-09T08:02:28;4.45;;;2.80;;
28920;SDS011;16035;53.594;9.952;2022-09-09T08:04:29;4.22;;;3.42;;
28920;SDS011;16035;53.594;9.952;2022-09-09T08:06:34;5.27;;;3.10;;
28920;SDS011;16035;53.594;9.952;2022-09-09T08:08:37;6.47;;;2.95;;
28920;SDS011;16035;53.594;9.952;2022-09-09T08:10:38;5.95;;;3.28;;
28920;SDS011;16035;53.594;9.952;2022-09-09T08:12:39;4.93;;;2.83;;
28920;SDS011;16035;53.594;9.952;2022-09-09T08:14:39;5.23;;;2.50;;
28920;SDS011;16035;53.594;9.952;2022-09-09T08:16:41;6.07;;;3.05;;
28920;SDS011;16035;53.594;9.952;2022-09-09T08:18:43;4.55;;;2.40;;
28920;SDS011;16035;53.594;9.952;2022-09-09T08:20:44;3.58;;;2.10;;
28920;SDS011;16035;53.594;9.952;2022-09-09T08:22:45;5.10;;;2.33;;
28920;SDS011;16035;53.594;9.952;2022-09-09T08:24:45;3.57;;;2.63;;
28920;SDS011;16035;53.594;9.952;2022-09-09T08:26:47;4.72;;;3.00;;
28920;SDS011;16035;53.594;9.952;2022-09-09T08:28:51;4.20;;;2.30;;
28920;SDS011;16035;53.594;9.952;2022-09-09T08:30:53;3.45;;;2.40;;
28920;SDS011;16035;53.594;9.952;2022-09-09T08:32:54;5.03;;;2.30;;
28920;SDS011;16035;53.594;9.952;2022-09-09T08:34:54;4.17;;;2.70;;
28920;SDS011;16035;53.594;9.952;2022-09-09T08:36:54;4.00;;;2.10;;
28920;SDS011;16035;53.594;9.952;2022-09-09T08:38:56;4.70;;;2.30;;
28920;SDS011;16035;53.594;9.952;2022-09-09T08:41:00;5.03;;;2.65;;
28920;SDS011;16035;53.594;9.952;2022-09-09T08:43:07;4.00;;;2.15;;
28920;SDS011;16035;53.594;9.952;2022-09-09T08:51:49;3.67;;;2.15;;
28920;SDS011;16035;53.594;9.952;2022-09-09T08:53:50;3.28;;;2.10;;
28920;SDS011;16035;53.594;9.952;2022-09-09T08:56:04;5.45;;;2.15;;
28920;SDS011;16035;53.594;9.952;2022-09-09T09:00:16;6.38;;;2.28;;
28920;SDS011;16035;53.594;9.952;2022-09-09T09:03:06;3.72;;;2.05;;
28920;SDS011;16035;53.594;9.952;2022-09-09T09:09:11;2.55;;;1.67;;
28920;SDS011;16035;53.594;9.952;2022-09-09T09:11:25;1.75;;;1.52;;
28920;SDS011;16035;53.594;9.952;2022-09-09T09:15:38;3.40;;;1.33;;
28920;SDS011;16035;53.594;9.952;2022-09-09T09:17:42;3.08;;;1.70;;
28920;SDS011;16035;53.594;9.952;2022-09-09T09:19:43;3.55;;;1.48;;
28920;SDS011;16035;53.594;9.952;2022-09-09T09:21:51;3.75;;;1.45;;
28920;SDS011;16035;53.594;9.952;2022-09-09T09:23:58;1.70;;;1.17;;
28920;SDS011;16035;53.594;9.952;2022-09-09T09:25:59;2.33;;;1.38;;
28920;SDS011;16035;53.594;9.952;2022-09-09T09:30:13;2.50;;;1.50;;
28920;SDS011;16035;53.594;9.952;2022-09-09T09:32:18;3.25;;;1.77;;
28920;SDS011;16035;53.594;9.952;2022-09-09T09:34:21;2.55;;;1.33;;
28920;SDS011;16035;53.594;9.952;2022-09-09T09:36:24;4.20;;;1.50;;
28920;SDS011;16035;53.594;9.952;2022-09-09T09:38:34;2.08;;;1.10;;
28920;SDS011;16035;53.594;9.952;2022-09-09T09:40:35;5.47;;;1.50;;
28920;SDS011;16035;53.594;9.952;2022-09-09T09:42:35;2.93;;;1.27;;
28920;SDS011;16035;53.594;9.952;2022-09-09T09:46:37;3.43;;;1.87;;
28920;SDS011;16035;53.594;9.952;2022-09-09T09:48:37;5.23;;;1.53;;
28920;SDS011;16035;53.594;9.952;2022-09-09T09:52:56;4.47;;;1.02;;
28920;SDS011;16035;53.594;9.952;2022-09-09T09:54:59;1.30;;;1.10;;
28920;SDS011;16035;53.594;9.952;2022-09-09T09:57:07;2.20;;;1.30;;
28920;SDS011;16035;53.594;9.952;2022-09-09T09:59:23;3.58;;;0.98;;
28920;SDS011;16035;53.594;9.952;2022-09-09T10:01:34;2.22;;;1.15;;
28920;SDS011;16035;53.594;9.952;2022-09-09T10:03:35;2.20;;;1.17;;
28920;SDS011;16035;53.594;9.952;2022-09-09T10:05:37;2.70;;;1.38;;
28920;SDS011;16035;53.594;9.952;2022-09-09T10:07:45;1.35;;;1.05;;
28920;SDS011;16035;53.594;9.952;2022-09-09T10:09:48;2.47;;;1.20;;
28920;SDS011;16035;53.594;9.952;2022-09-09T10:11:56;2.85;;;0.77;;
28920;SDS011;16035;53.594;9.952;2022-09-09T10:18:38;3.83;;;1.45;;
28920;SDS011;16035;53.594;9.952;2022-09-09T10:22:59;3.45;;;1.00;;
28920;SDS011;16035;53.594;9.952;2022-09-09T10:27:32;3.42;;;1.35;;
28920;SDS011;16035;53.594;9.952;2022-09-09T10:29:53;1.67;;;1.02;;
28920;SDS011;16035;53.594;9.952;2022-09-09T10:36:19;1.25;;;0.70;;
28920;SDS011;16035;53.594;9.952;2022-09-09T10:38:29;5.55;;;1.40;;
28920;SDS011;16035;53.594;9.952;2022-09-09T10:42:52;4.50;;;1.40;;
28920;SDS011;16035;53.594;9.952;2022-09-09T10:49:57;0.95;;;0.70;;
28920;SDS011;16035;53.594;9.952;2022-09-09T10:56:37;1.88;;;0.93;;
28920;SDS011;16035;53.594;9.952;2022-09-09T10:58:53;1.77;;;0.70;;
28920;SDS011;16035;53.594;9.952;2022-09-09T11:01:24;2.83;;;0.90;;
28920;SDS011;16035;53.594;9.952;2022-09-09T11:03:29;5.45;;;1.10;;
28920;SDS011;16035;53.594;9.952;2022-09-09T11:07:42;0.88;;;0.77;;
28920;SDS011;16035;53.594;9.952;2022-09-09T11:09:49;1.55;;;0.95;;
28920;SDS011;16035;53.594;9.952;2022-09-09T11:11:56;1.13;;;0.75;;
28920;SDS011;16035;53.594;9.952;2022-09-09T11:14:03;4.10;;;0.85;;
28920;SDS011;16035;53.594;9.952;2022-09-09T11:16:22;3.97;;;1.00;;
28920;SDS011;16035;53.594;9.952;2022-09-09T11:18:25;2.70;;;1.13;;
28920;SDS011;16035;53.594;9.952;2022-09-09T11:20:29;3.85;;;0.90;;
28920;SDS011;16035;53.594;9.952;2022-09-09T11:22:31;3.92;;;0.90;;
28920;SDS011;16035;53.594;9.952;2022-09-09T11:24:47;3.75;;;0.88;;
28920;SDS011;16035;53.594;9.952;2022-09-09T11:26:57;2.10;;;0.95;;
28920;SDS011;16035;53.594;9.952;2022-09-09T11:31:22;0.93;;;0.68;;
28920;SDS011;16035;53.594;9.952;2022-09-09T11:38:33;1.33;;;0.70;;
28920;SDS011;16035;53.594;9.952;2022-09-09T11:40:45;2.15;;;0.60;;
28920;SDS011;16035;53.594;9.952;2022-09-09T11:42:47;2.47;;;1.15;;
28920;SDS011;16035;53.594;9.952;2022-09-09T11:44:49;2.10;;;1.00;;
28920;SDS011;16035;53.594;9.952;2022-09-09T11:49:02;1.73;;;0.90;;
28920;SDS011;16035;53.594;9.952;2022-09-09T11:53:17;2.17;;;1.00;;
28920;SDS011;16035;53.594;9.952;2022-09-09T11:57:35;2.25;;;0.80;;
28920;SDS011;16035;53.594;9.952;2022-09-09T11:59:36;3.03;;;0.75;;
28920;SDS011;16035;53.594;9.952;2022-09-09T12:01:48;2.20;;;0.80;;
28920;SDS011;16035;53.594;9.952;2022-09-09T12:04:00;1.60;;;0.60;;
28920;SDS011;16035;53.594;9.952;2022-09-09T12:08:31;3.85;;;1.20;;
28920;SDS011;16035;53.594;9.952;2022-09-09T12:11:22;4.22;;;0.95;;
28920;SDS011;16035;53.594;9.952;2022-09-09T12:13:07;0.80;;;0.75;;
28920;SDS011;16035;53.594;9.952;2022-09-09T12:15:27;5.63;;;1.42;;
28920;SDS011;16035;53.594;9.952;2022-09-09T12:17:30;1.80;;;1.35;;
28920;SDS011;16035;53.594;9.952;2022-09-09T12:19:31;1.60;;;1.10;;
28920;SDS011;16035;53.594;9.952;2022-09-09T12:24:00;2.55;;;1.20;;
28920;SDS011;16035;53.594;9.952;2022-09-09T12:28:18;2.58;;;1.10;;
28920;SDS011;16035;53.594;9.952;2022-09-09T12:30:41;2.80;;;1.15;;
28920;SDS011;16035;53.594;9.952;2022-09-09T12:32:58;1.83;;;1.27;;
28920;SDS011;16035;53.594;9.952;2022-09-09T12:35:22;3.10;;;1.40;;
28920;SDS011;16035;53.594;9.952;2022-09-09T12:39:43;5.05;;;1.33;;
28920;SDS011;16035;53.594;9.952;2022-09-09T12:41:50;4.25;;;0.93;;
28920;SDS011;16035;53.594;9.952;2022-09-09T12:44:03;5.32;;;0.90;;
28920;SDS011;16035;53.594;9.952;2022-09-09T12:46:09;1.75;;;0.93;;
28920;SDS011;16035;53.594;9.952;2022-09-09T12:48:21;3.90;;;1.10;;
28920;SDS011;16035;53.594;9.952;2022-09-09T12:50:31;2.50;;;1.00;;
28920;SDS011;16035;53.594;9.952;2022-09-09T12:52:35;3.45;;;1.20;;
28920;SDS011;16035;53.594;9.952;2022-09-09T12:54:37;2.42;;;1.27;;
28920;SDS011;16035;53.594;9.952;2022-09-09T12:56:37;3.37;;;1.30;;
28920;SDS011;16035;53.594;9.952;2022-09-09T12:58:39;4.03;;;1.70;;
28920;SDS011;16035;53.594;9.952;2022-09-09T13:00:53;3.38;;;1.20;;
28920;SDS011;16035;53.594;9.952;2022-09-09T13:02:58;1.38;;;1.02;;
28920;SDS011;16035;53.594;9.952;2022-09-09T13:05:14;5.03;;;1.23;;
28920;SDS011;16035;53.594;9.952;2022-09-09T13:07:26;2.00;;;1.10;;
28920;SDS011;16035;53.594;9.952;2022-09-09T13:09:26;3.27;;;1.07;;
28920;SDS011;16035;53.594;9.952;2022-09-09T13:11:37;5.77;;;1.97;;
28920;SDS011;16035;53.594;9.952;2022-09-09T13:13:51;3.88;;;1.60;;
28920;SDS011;16035;53.594;9.952;2022-09-09T13:15:55;1.45;;;1.10;;
28920;SDS011;16035;53.594;9.952;2022-09-09T13:17:58;2.55;;;1.50;;
28920;SDS011;16035;53.594;9.952;2022-09-09T13:20:01;4.85;;;1.77;;
28920;SDS011;16035;53.594;9.952;2022-09-09T13:22:12;2.33;;;1.20;;
28920;SDS011;16035;53.594;9.952;2022-09-09T13:24:31;4.55;;;1.88;;
28920;SDS011;16035;53.594;9.952;2022-09-09T13:26:33;4.50;;;1.70;;
28920;SDS011;16035;53.594;9.952;2022-09-09T13:28:34;2.58;;;1.42;;
28920;SDS011;16035;53.594;9.952;2022-09-09T13:30:37;3.67;;;1.90;;
28920;SDS011;16035;53.594;9.952;2022-09-09T13:32:40;3.75;;;1.00;;
28920;SDS011;16035;53.594;9.952;2022-09-09T13:34:49;5.13;;;1.73;;
28920;SDS011;16035;53.594;9.952;2022-09-09T13:36:51;3.00;;;1.30;;
28920;SDS011;16035;53.594;9.952;2022-09-09T13:38:53;2.60;;;0.90;;
28920;SDS011;16035;53.594;9.952;2022-09-09T13:41:03;4.53;;;0.90;;
28920;SDS011;16035;53.594;9.952;2022-09-09T13:43:10;1.70;;;0.80;;
28920;SDS011;16035;53.594;9.952;2022-09-09T13:45:19;2.08;;;0.90;;
28920;SDS011;16035;53.594;9.952;2022-09-09T13:47:26;3.33;;;0.85;;
28920;SDS011;16035;53.594;9.952;2022-09-09T13:49:31;4.00;;;1.30;;
28920;SDS011;16035;53.594;9.952;2022-09-09T13:51:37;3.85;;;1.70;;
28920;SDS011;16035;53.594;9.952;2022-09-09T13:53:42;4.57;;;1.40;;
28920;SDS011;16035;53.594;9.952;2022-09-09T13:55:46;3.78;;;1.70;;
28920;SDS011;16035;53.594;9.952;2022-09-09T13:57:50;1.58;;;1.13;;
28920;SDS011;16035;53.594;9.952;2022-09-09T13:59:53;7.68;;;1.77;;
28920;SDS011;16035;53.594;9.952;2022-09-09T14:01:54;3.53;;;1.58;;
28920;SDS011;16035;53.594;9.952;2022-09-09T14:03:55;4.63;;;1.53;;
28920;SDS011;16035;53.594;9.952;2022-09-09T14:05:55;5.30;;;1.58;;
28920;SDS011;16035;53.594;9.952;2022-09-09T14:07:57;3.75;;;1.50;;
28920;SDS011;16035;53.594;9.952;2022-09-09T14:09:58;4.25;;;1.38;;
28920;SDS011;16035;53.594;9.952;2022-09-09T14:11:59;4.57;;;1.63;;
28920;SDS011;16035;53.594;9.952;2022-09-09T14:14:00;3.47;;;1.73;;
28920;SDS011;16035;53.594;9.952;2022-09-09T14:16:00;2.97;;;1.60;;